Time;durP1;ratioP1;P1;durP2;ratioP2;P2;SDS_P1;SDS_P2;PMS_P1;PMS_P2;Temp;Humidity;BMP_temperature;BMP_pressure;BME280_temperature;BME280_humidity;BME280_pressure;Samples;Min_cycle;Max_cycle;Signal;HPM_P1;HPM_P2
2022/08/13 00:01:56;;;;;;;;;;;;;;;;;;5035935;28;20483;-77
2022/08/13 00:04:21;;;;;;;;;;;;;;;;;;5035710;28;19917;-76
2022/08/13 00:09:12;;;;;;;;;;;;;;;;;;5034683;28;19917;-78
2022/08/13 00:14:22;;;;;;;;;;;;;;;;;;5035438;28;19917;-77
2022/08/13 00:16:47;;;;;;;;;;;;;;;;;;5035660;28;19913;-77
2022/08/13 00:19:12;;;;;;;;;;;;;;;;;;5035632;28;19913;-77
2022/08/13 00:21:38;;;;;;;;;;;;;;;;;;5034371;28;19920;-78
2022/08/13 00:24:03;;;;;;;;;;;;;;;;;;5034140;28;19920;-76
2022/08/13 00:26:30;;;;;;;;;;;;;;;;;;5034346;28;19913;-77
2022/08/13 00:28:55;;;;;;;;;;;;;;;;;;5035553;28;19913;-76
2022/08/13 00:31:20;;;;;;;;;;;;;;;;;;5035413;28;19920;-77
2022/08/13 00:33:45;;;;;;;;;;;;;;;;;;5034928;28;19913;-76
2022/08/13 00:36:12;;;;;;;;;;;;;;;;;;5035289;28;19923;-77
2022/08/13 00:38:38;;;;;;;;;;;;;;;;;;5035560;28;19980;-75
2022/08/13 00:41:03;;;;;;;;;;;;;;;;;;5034941;28;20370;-77
2022/08/13 00:43:30;;;;;;;;;;;;;;;;;;5033629;28;20284;-76
2022/08/13 00:45:55;;;;;;;;;;;;;;;;;;5034203;28;19913;-75
2022/08/13 00:51:06;;;;;;;;;;;;;;;;;;5035046;28;20443;-76
2022/08/13 00:53:32;;;;;;;;;;;;;;;;;;5034586;28;20376;-77
2022/08/13 00:55:58;;;;;;;;;;;;;;;;;;5035236;28;20024;-77
2022/08/13 00:58:24;;;;;;;;;;;;;;;;;;5035021;28;19913;-77
2022/08/13 01:00:49;;;;;;;;;;;;;;;;;;5034587;28;19913;-78
2022/08/13 01:03:14;;;;;;;;;;;;;;;;;;5034539;28;19913;-76
2022/08/13 01:05:40;;;;;;;;;;;;;;;;;;5033638;28;20319;-77
2022/08/13 01:08:05;;;;;;;;;;;;;;;;;;5034583;28;20232;-78
2022/08/13 01:10:30;;;;;;;;;;;;;;;;;;5034658;28;19913;-75
2022/08/13 01:12:56;;;;;;;;;;;;;;;;;;5034156;28;19913;-78
2022/08/13 01:15:23;;;;;;;;;;;;;;;;;;5034298;28;20381;-77
2022/08/13 01:17:53;;;;;;;;;;;;;;;;;;5034388;28;19921;-76
2022/08/13 01:20:21;;;;;;;;;;;;;;;;;;5033303;28;20011;-76
2022/08/13 01:22:47;;;;;;;;;;;;;;;;;;5032605;28;19909;-76
2022/08/13 01:25:12;;;;;;;;;;;;;;;;;;5034305;28;19924;-77
2022/08/13 01:27:39;;;;;;;;;;;;;;;;;;5032817;28;19917;-77
2022/08/13 01:30:05;;;;;;;;;;;;;;;;;;5032833;28;19996;-78
2022/08/13 01:32:30;;;;;;;;;;;;;;;;;;5032713;28;19959;-77
2022/08/13 01:34:56;;;;;;;;;;;;;;;;;;5032703;28;20300;-76
2022/08/13 01:37:21;;;;;;;;;;;;;;;;;;5033857;28;20380;-76
2022/08/13 01:39:48;;;;;;;;;;;;;;;;;;5033760;28;19913;-77
2022/08/13 01:42:20;;;;;;;;;;;;;;;;;;5032936;28;20193;-77
2022/08/13 01:44:45;;;;;;;;;;;;;;;;;;5032560;28;19920;-76
2022/08/13 01:52:38;;;;;;;;;;;;;;;;;;5031427;28;19989;-76
2022/08/13 01:55:04;;;;;;;;;;;;;;;;;;5032609;28;19916;-77
2022/08/13 01:57:33;;;;;;;;;;;;;;;;;;5031377;28;19913;-77
2022/08/13 01:59:58;;;;;;;;;;;;;;;;;;5032514;28;19924;-77
2022/08/13 02:02:27;;;;;;;;;;;;;;;;;;5032290;28;19917;-78
2022/08/13 02:04:53;;;;;;;;;;;;;;;;;;5032137;28;19917;-77
2022/08/13 02:07:18;;;;;;;;;;;;;;;;;;5031352;28;20339;-77
2022/08/13 02:09:43;;;;;;;;;;;;;;;;;;5032054;28;19913;-77
2022/08/13 02:12:09;;;;;;;;;;;;;;;;;;5030271;28;19913;-77
2022/08/13 02:14:34;;;;;;;;;;;;;;;;;;5031931;28;19920;-77
2022/08/13 02:16:59;;;;;;;;;;;;;;;;;;5032291;28;19921;-77
2022/08/13 02:19:25;;;;;;;;;;;;;;;;;;5030905;28;20269;-77
2022/08/13 02:21:51;;;;;;;;;;;;;;;;;;5030991;28;20288;-78
2022/08/13 02:24:16;;;;;;;;;;;;;;;;;;5014387;28;20024;-76
2022/08/13 02:26:42;;;;;;;;;;;;;;;;;;5032130;28;19979;-77
2022/08/13 02:29:08;;;;;;;;;;;;;;;;;;5030984;28;19934;-76
2022/08/13 02:31:34;;;;;;;;;;;;;;;;;;5032007;28;19924;-76
2022/08/13 02:33:59;;;;;;;;;;;;;;;;;;5031813;28;19917;-77
2022/08/13 02:36:25;;;;;;;;;;;;;;;;;;5032194;28;19948;-76
2022/08/13 02:38:52;;;;;;;;;;;;;;;;;;5032013;28;19914;-77
2022/08/13 02:44:01;;;;;;;;;;;;;;;;;;5030824;28;19913;-76
2022/08/13 02:46:26;;;;;;;;;;;;;;;;;;5032791;28;20004;-76
2022/08/13 02:48:52;;;;;;;;;;;;;;;;;;5032673;28;19924;-77
2022/08/13 02:51:20;;;;;;;;;;;;;;;;;;5031401;28;19913;-77
2022/08/13 02:53:46;;;;;;;;;;;;;;;;;;5031148;28;20007;-76
2022/08/13 02:56:11;;;;;;;;;;;;;;;;;;5032205;28;19952;-77
2022/08/13 02:58:36;;;;;;;;;;;;;;;;;;5032505;28;19955;-77
2022/08/13 03:01:02;;;;;;;;;;;;;;;;;;5032586;28;20339;-77
2022/08/13 03:03:27;;;;;;;;;;;;;;;;;;5014465;28;19945;-77
2022/08/13 03:05:53;;;;;;;;;;;;;;;;;;5031712;28;20347;-76
2022/08/13 03:08:18;;;;;;;;;;;;;;;;;;5031983;28;19917;-76
2022/08/13 03:10:43;;;;;;;;;;;;;;;;;;5031589;28;20260;-76
2022/08/13 03:13:09;;;;;;;;;;;;;;;;;;5033826;28;19920;-76
2022/08/13 03:15:34;;;;;;;;;;;;;;;;;;5034974;28;20365;-77
2022/08/13 03:17:59;;;;;;;;;;;;;;;;;;5040971;28;19919;-77
2022/08/13 03:20:25;;;;;;;;;;;;;;;;;;5048414;28;19956;-77
2022/08/13 03:22:51;;;;;;;;;;;;;;;;;;5046277;28;19968;-76
2022/08/13 03:25:16;;;;;;;;;;;;;;;;;;5027357;28;19984;-77
2022/08/13 03:27:41;;;;;;;;;;;;;;;;;;5041559;28;19921;-77
2022/08/13 03:30:07;;;;;;;;;;;;;;;;;;5044761;28;19901;-77
2022/08/13 03:32:32;;;;;;;;;;;;;;;;;;5034436;28;19940;-76
2022/08/13 03:34:57;;;;;;;;;;;;;;;;;;5032153;28;19913;-77
2022/08/13 03:37:24;;;;;;;;;;;;;;;;;;5032214;28;19909;-78
2022/08/13 03:39:49;;;;;;;;;;;;;;;;;;5030754;28;19914;-78
2022/08/13 03:42:15;;;;;;;;;;;;;;;;;;5042498;23;19982;-75
2022/08/13 03:44:41;;;;;;;;;;;;;;;;;;5034423;28;19951;-76
2022/08/13 03:47:06;;;;;;;;;;;;;;;;;;5052153;28;19972;-76
2022/08/13 03:49:36;;;;;;;;;;;;;;;;;;5052144;28;19920;-76
2022/08/13 03:52:02;;;;;;;;;;;;;;;;;;5052058;28;19912;-76
2022/08/13 03:54:27;;;;;;;;;;;;;;;;;;5050586;28;20450;-76
2022/08/13 03:56:52;;;;;;;;;;;;;;;;;;5052165;28;19913;-73
2022/08/13 03:59:18;;;;;;;;;;;;;;;;;;5051486;28;19917;-75
2022/08/13 04:01:44;;;;;;;;;;;;;;;;;;5050652;28;19912;-75
2022/08/13 04:04:10;;;;;;;;;;;;;;;;;;5051883;28;19912;-76
2022/08/13 04:06:36;;;;;;;;;;;;;;;;;;5050645;28;20490;-76
2022/08/13 04:09:03;;;;;;;;;;;;;;;;;;5052183;28;20372;-74
2022/08/13 04:11:28;;;;;;;;;;;;;;;;;;5052094;28;19913;-75
2022/08/13 04:13:54;;;;;;;;;;;;;;;;;;5051833;28;19920;-76
2022/08/13 04:16:20;;;;;;;;;;;;;;;;;;5052134;28;20491;-76
2022/08/13 04:18:45;;;;;;;;;;;;;;;;;;5052079;28;19917;-76
2022/08/13 04:21:11;;;;;;;;;;;;;;;;;;5050502;28;19935;-76
2022/08/13 04:23:39;;;;;;;;;;;;;;;;;;5051447;28;19962;-76
2022/08/13 04:26:04;;;;;;;;;;;;;;;;;;5051637;28;19920;-76
2022/08/13 04:28:30;;;;;;;;;;;;;;;;;;5050410;28;19917;-76
2022/08/13 04:30:56;;;;;;;;;;;;;;;;;;5050276;28;19917;-76
2022/08/13 04:33:21;;;;;;;;;;;;;;;;;;5051326;28;20019;-75
2022/08/13 04:35:47;;;;;;;;;;;;;;;;;;5054324;28;19955;-76
2022/08/13 04:38:12;;;;;;;;;;;;;;;;;;5054388;28;19963;-76
2022/08/13 04:40:37;;;;;;;;;;;;;;;;;;5053753;28;19917;-76
2022/08/13 04:43:03;;;;;;;;;;;;;;;;;;5055122;28;19913;-76
2022/08/13 04:45:29;;;;;;;;;;;;;;;;;;5037409;28;19920;-74
2022/08/13 04:47:56;;;;;;;;;;;;;;;;;;5055227;28;20372;-75
2022/08/13 04:50:21;;;;;;;;;;;;;;;;;;5055194;28;19913;-76
2022/08/13 04:52:47;;;;;;;;;;;;;;;;;;5020670;28;19955;-75
2022/08/13 04:55:12;;;;;;;;;;;;;;;;;;5054878;28;19997;-75
2022/08/13 04:57:38;;;;;;;;;;;;;;;;;;5053853;28;19919;-74
2022/08/13 05:00:05;;;;;;;;;;;;;;;;;;5055090;28;19913;-75
2022/08/13 05:02:31;;;;;;;;;;;;;;;;;;5053419;28;19952;-75
2022/08/13 05:04:58;;;;;;;;;;;;;;;;;;5053744;28;19936;-75
2022/08/13 05:07:23;;;;;;;;;;;;;;;;;;5054789;28;20011;-75
2022/08/13 05:09:49;;;;;;;;;;;;;;;;;;5053342;28;20001;-77
2022/08/13 05:12:14;;;;;;;;;;;;;;;;;;5054701;28;19920;-75
2022/08/13 05:14:40;;;;;;;;;;;;;;;;;;5053071;28;19913;-75
2022/08/13 05:17:07;;;;;;;;;;;;;;;;;;5053570;28;19917;-74
2022/08/13 05:19:32;;;;;;;;;;;;;;;;;;5036879;28;19917;-77
2022/08/13 05:21:58;;;;;;;;;;;;;;;;;;5036985;28;20001;-76
2022/08/13 05:24:23;;;;;;;;;;;;;;;;;;5052991;28;20257;-75
2022/08/13 05:26:48;;;;;;;;;;;;;;;;;;5054648;28;19917;-77
2022/08/13 05:29:14;;;;;;;;;;;;;;;;;;5036663;28;19916;-75
2022/08/13 05:31:39;;;;;;;;;;;;;;;;;;5054516;28;19967;-75
2022/08/13 05:34:06;;;;;;;;;;;;;;;;;;5054043;28;19917;-76
2022/08/13 05:36:31;;;;;;;;;;;;;;;;;;5053161;28;19917;-75
2022/08/13 05:38:58;;;;;;;;;;;;;;;;;;5054316;28;19913;-77
2022/08/13 05:41:24;;;;;;;;;;;;;;;;;;5054146;28;20011;-77
2022/08/13 05:43:51;;;;;;;;;;;;;;;;;;5053661;28;20008;-77
2022/08/13 05:46:16;;;;;;;;;;;;;;;;;;5053413;28;19917;-75
2022/08/13 05:48:41;;;;;;;;;;;;;;;;;;5036418;28;20023;-75
2022/08/13 05:51:08;;;;;;;;;;;;;;;;;;5054161;28;19913;-76
2022/08/13 05:53:35;;;;;;;;;;;;;;;;;;5053484;28;19913;-75
2022/08/13 05:56:02;;;;;;;;;;;;;;;;;;5054073;28;19992;-76
2022/08/13 05:58:28;;;;;;;;;;;;;;;;;;5035979;28;19913;-75
2022/08/13 06:03:37;;;;;;;;;;;;;;;;;;5052251;28;19917;-76
2022/08/13 06:06:03;;;;;;;;;;;;;;;;;;5053698;28;20367;-74
2022/08/13 06:08:29;;;;;;;;;;;;;;;;;;5053522;28;20364;-75
2022/08/13 06:10:55;;;;;;;;;;;;;;;;;;5053475;28;19913;-76
2022/08/13 06:13:20;;;;;;;;;;;;;;;;;;5053238;28;20360;-76
2022/08/13 06:15:57;;;;;;;;;;;;;;;;;;5052517;28;19912;-76
2022/08/13 06:18:24;;;;;;;;;;;;;;;;;;5053510;28;19924;-76
2022/08/13 06:20:50;;;;;;;;;;;;;;;;;;5052161;28;19917;-76
2022/08/13 06:23:16;;;;;;;;;;;;;;;;;;5052898;28;20150;-76
2022/08/13 06:25:41;;;;;;;;;;;;;;;;;;5052078;28;19908;-76
2022/08/13 06:28:07;;;;;;;;;;;;;;;;;;5053257;28;20380;-76
2022/08/13 06:30:35;;;;;;;;;;;;;;;;;;5053178;28;19913;-75
2022/08/13 06:33:03;;;;;;;;;;;;;;;;;;5052803;28;19913;-76
2022/08/13 06:35:28;;;;;;;;;;;;;;;;;;5053137;28;20390;-76
2022/08/13 06:37:54;;;;;;;;;;;;;;;;;;5051874;28;19909;-76
2022/08/13 06:40:19;;;;;;;;;;;;;;;;;;5052885;28;19919;-74
2022/08/13 06:42:45;;;;;;;;;;;;;;;;;;5051432;28;20452;-74
2022/08/13 06:45:10;;;;;;;;;;;;;;;;;;5052903;28;19958;-76
2022/08/13 06:47:36;;;;;;;;;;;;;;;;;;5052795;28;20360;-75
2022/08/13 06:50:04;;;;;;;;;;;;;;;;;;5052746;28;20400;-76
2022/08/13 06:52:29;;;;;;;;;;;;;;;;;;5052564;28;19919;-76
2022/08/13 06:54:57;;;;;;;;;;;;;;;;;;5034699;28;19913;-77
2022/08/13 06:57:23;;;;;;;;;;;;;;;;;;5052595;28;19966;-76
2022/08/13 06:59:48;;;;;;;;;;;;;;;;;;5051529;28;20384;-76
2022/08/13 07:02:14;;;;;;;;;;;;;;;;;;5052432;28;19960;-75
2022/08/13 07:04:40;;;;;;;;;;;;;;;;;;5051287;28;19913;-76
2022/08/13 07:07:08;;;;;;;;;;;;;;;;;;5034943;28;19960;-76
2022/08/13 07:09:34;;;;;;;;;;;;;;;;;;5018457;28;19947;-76
2022/08/13 07:11:59;;;;;;;;;;;;;;;;;;5052237;28;20368;-77
2022/08/13 07:14:24;;;;;;;;;;;;;;;;;;5052030;28;19919;-76
2022/08/13 07:16:49;;;;;;;;;;;;;;;;;;5050947;28;19966;-76
2022/08/13 07:19:15;;;;;;;;;;;;;;;;;;5052265;28;20007;-76
2022/08/13 07:21:40;;;;;;;;;;;;;;;;;;5050929;28;19963;-76
2022/08/13 07:24:08;;;;;;;;;;;;;;;;;;5050500;28;19920;-76
2022/08/13 07:26:37;;;;;;;;;;;;;;;;;;5052156;28;19913;-76
2022/08/13 07:29:02;;;;;;;;;;;;;;;;;;5052038;28;19913;-76
2022/08/13 07:31:28;;;;;;;;;;;;;;;;;;5052155;28;19913;-76
2022/08/13 07:33:53;;;;;;;;;;;;;;;;;;5034023;28;19913;-76
2022/08/13 07:36:19;;;;;;;;;;;;;;;;;;5051005;28;19912;-76
2022/08/13 07:38:44;;;;;;;;;;;;;;;;;;5050890;28;19909;-76
2022/08/13 07:41:13;;;;;;;;;;;;;;;;;;5050780;28;20297;-75
2022/08/13 07:43:40;;;;;;;;;;;;;;;;;;5051972;28;19913;-75
2022/08/13 07:46:07;;;;;;;;;;;;;;;;;;5050785;28;19979;-77
2022/08/13 07:48:33;;;;;;;;;;;;;;;;;;5034401;28;19917;-75
2022/08/13 07:50:58;;;;;;;;;;;;;;;;;;5050445;28;19919;-76
2022/08/13 07:53:23;;;;;;;;;;;;;;;;;;5051387;28;19913;-76
2022/08/13 07:55:49;;;;;;;;;;;;;;;;;;5051663;28;20023;-75
2022/08/13 07:58:14;;;;;;;;;;;;;;;;;;5050594;28;19912;-77
2022/08/13 08:00:39;;;;;;;;;;;;;;;;;;5050449;28;20440;-75
2022/08/13 08:03:05;;;;;;;;;;;;;;;;;;5051468;28;20356;-76
2022/08/13 08:05:31;;;;;;;;;;;;;;;;;;5050698;28;20420;-76
2022/08/13 08:07:57;;;;;;;;;;;;;;;;;;5051888;28;20384;-76
2022/08/13 08:10:22;;;;;;;;;;;;;;;;;;5052754;28;19920;-76
2022/08/13 08:12:48;;;;;;;;;;;;;;;;;;5037783;28;19913;-76
2022/08/13 08:15:13;;;;;;;;;;;;;;;;;;5056243;28;19919;-75
2022/08/13 08:17:40;;;;;;;;;;;;;;;;;;5055107;28;19966;-75
2022/08/13 08:20:06;;;;;;;;;;;;;;;;;;5056094;28;19976;-76
2022/08/13 08:22:31;;;;;;;;;;;;;;;;;;5055631;28;19945;-77
2022/08/13 08:24:57;;;;;;;;;;;;;;;;;;5054190;28;19917;-76
2022/08/13 08:27:24;;;;;;;;;;;;;;;;;;5054549;28;19916;-77
2022/08/13 08:29:49;;;;;;;;;;;;;;;;;;5055677;28;19913;-76
2022/08/13 08:32:15;;;;;;;;;;;;;;;;;;5054499;28;19920;-76
2022/08/13 08:34:40;;;;;;;;;;;;;;;;;;5054910;28;19920;-77
2022/08/13 08:37:06;;;;;;;;;;;;;;;;;;5055586;28;19943;-76
2022/08/13 08:44:59;;;;;;;;;;;;;;;;;;5055320;28;19913;-76
2022/08/13 08:47:26;;;;;;;;;;;;;;;;;;5054629;28;19958;-75
2022/08/13 08:49:51;;;;;;;;;;;;;;;;;;5054311;28;19962;-75
2022/08/13 08:52:17;;;;;;;;;;;;;;;;;;5055351;28;19996;-76
2022/08/13 08:54:43;;;;;;;;;;;;;;;;;;5053508;28;20372;-77
2022/08/13 08:57:08;;;;;;;;;;;;;;;;;;5054146;28;20375;-76
2022/08/13 08:59:35;;;;;;;;;;;;;;;;;;5056915;28;20015;-76
2022/08/13 09:02:01;;;;;;;;;;;;;;;;;;5056809;28;19913;-76
2022/08/13 09:04:28;;;;;;;;;;;;;;;;;;5054573;28;19919;-75
2022/08/13 09:06:55;;;;;;;;;;;;;;;;;;5036901;28;20375;-75
2022/08/13 09:09:20;;;;;;;;;;;;;;;;;;5054662;28;19912;-76
2022/08/13 09:11:45;;;;;;;;;;;;;;;;;;5054738;28;19913;-76
2022/08/13 09:14:12;;;;;;;;;;;;;;;;;;5054389;28;19912;-76
2022/08/13 09:16:38;;;;;;;;;;;;;;;;;;5036696;28;19913;-77
2022/08/13 09:19:03;;;;;;;;;;;;;;;;;;5053456;28;19940;-77
2022/08/13 09:21:28;;;;;;;;;;;;;;;;;;5052959;28;19921;-76
2022/08/13 09:23:54;;;;;;;;;;;;;;;;;;5053683;28;20007;-77
2022/08/13 09:26:20;;;;;;;;;;;;;;;;;;5053017;28;20012;-76
2022/08/13 09:28:46;;;;;;;;;;;;;;;;;;5054271;28;19923;-75
2022/08/13 09:31:12;;;;;;;;;;;;;;;;;;5054295;28;19920;-74
2022/08/13 09:33:40;;;;;;;;;;;;;;;;;;5054058;28;19913;-74
2022/08/13 09:36:09;;;;;;;;;;;;;;;;;;5053040;28;19999;-76
2022/08/13 09:38:34;;;;;;;;;;;;;;;;;;5053994;28;19984;-76
2022/08/13 09:41:00;;;;;;;;;;;;;;;;;;5066300;22;19924;-77
2022/08/13 09:43:28;;;;;;;;;;;;;;;;;;5073369;28;19912;-77
2022/08/13 09:45:53;;;;;;;;;;;;;;;;;;5073541;28;19912;-77
2022/08/13 09:48:18;;;;;;;;;;;;;;;;;;5055997;28;19928;-76
2022/08/13 09:50:43;;;;;;;;;;;;;;;;;;5073590;28;19920;-76
2022/08/13 09:53:09;;;;;;;;;;;;;;;;;;5073168;28;19995;-77
2022/08/13 09:55:37;;;;;;;;;;;;;;;;;;5055840;28;19912;-77
2022/08/13 09:58:02;;;;;;;;;;;;;;;;;;5055768;28;19912;-77
2022/08/13 10:00:27;;;;;;;;;;;;;;;;;;5055682;28;20236;-77
2022/08/13 10:02:58;;;;;;;;;;;;;;;;;;5073167;28;19916;-78
2022/08/13 10:05:28;;;;;;;;;;;;;;;;;;5038960;28;19912;-78
2022/08/13 10:07:53;;;;;;;;;;;;;;;;;;5055466;28;19916;-77
2022/08/13 10:10:18;;;;;;;;;;;;;;;;;;5073994;28;19916;-77
2022/08/13 10:12:44;;;;;;;;;;;;;;;;;;5038059;28;20010;-76
2022/08/13 10:15:09;;;;;;;;;;;;;;;;;;5073161;28;19923;-77
2022/08/13 10:17:34;;;;;;;;;;;;;;;;;;5055308;28;19912;-77
2022/08/13 10:20:00;;;;;;;;;;;;;;;;;;5022016;28;19935;-77
2022/08/13 10:22:25;;;;;;;;;;;;;;;;;;5072634;28;19908;-77
2022/08/13 10:24:51;;;;;;;;;;;;;;;;;;5072783;28;20296;-77
2022/08/13 10:27:16;;;;;;;;;;;;;;;;;;5055147;28;19917;-77
2022/08/13 10:29:41;;;;;;;;;;;;;;;;;;5055154;28;19920;-78
2022/08/13 10:32:07;;;;;;;;;;;;;;;;;;5054418;28;19923;-78
2022/08/13 10:34:32;;;;;;;;;;;;;;;;;;5054755;28;19913;-77
2022/08/13 10:36:59;;;;;;;;;;;;;;;;;;5072926;28;20000;-77
2022/08/13 10:39:25;;;;;;;;;;;;;;;;;;5072857;28;19947;-77
2022/08/13 10:41:51;;;;;;;;;;;;;;;;;;5072495;28;19983;-77
2022/08/13 10:44:18;;;;;;;;;;;;;;;;;;5072213;28;19919;-77
2022/08/13 10:46:45;;;;;;;;;;;;;;;;;;5054628;28;19995;-77
2022/08/13 10:49:12;;;;;;;;;;;;;;;;;;5056333;28;19912;-77
2022/08/13 10:51:37;;;;;;;;;;;;;;;;;;5054958;28;19917;-77
2022/08/13 10:54:02;;;;;;;;;;;;;;;;;;5054104;28;19919;-77
2022/08/13 10:56:28;;;;;;;;;;;;;;;;;;5054349;28;19913;-77
2022/08/13 10:58:53;;;;;;;;;;;;;;;;;;5054934;28;19912;-77
2022/08/13 11:01:23;;;;;;;;;;;;;;;;;;5037984;28;19998;-78
2022/08/13 11:03:48;;;;;;;;;;;;;;;;;;5071869;28;19919;-77
2022/08/13 11:06:14;;;;;;;;;;;;;;;;;;5072497;28;19912;-76
2022/08/13 11:08:39;;;;;;;;;;;;;;;;;;5054290;28;19978;-76
2022/08/13 11:11:05;;;;;;;;;;;;;;;;;;5072108;28;20049;-76
2022/08/13 11:13:31;;;;;;;;;;;;;;;;;;5072150;28;20337;-77
2022/08/13 11:15:56;;;;;;;;;;;;;;;;;;5037974;28;19920;-76
2022/08/13 11:18:22;;;;;;;;;;;;;;;;;;5072146;28;19916;-76
2022/08/13 11:21:03;;;;;;;;;;;;;;;;;;5054487;28;19958;-76
2022/08/13 11:23:28;;;;;;;;;;;;;;;;;;5071901;28;19916;-77
2022/08/13 11:25:53;;;;;;;;;;;;;;;;;;5037569;28;20391;-78
2022/08/13 11:28:19;;;;;;;;;;;;;;;;;;5072090;28;20302;-77
2022/08/13 11:30:44;;;;;;;;;;;;;;;;;;5054446;28;19920;-77
2022/08/13 11:33:09;;;;;;;;;;;;;;;;;;5071713;28;19916;-77
2022/08/13 11:35:35;;;;;;;;;;;;;;;;;;5054498;28;19912;-77
2022/08/13 11:38:00;;;;;;;;;;;;;;;;;;5071936;28;19976;-76
2022/08/13 11:40:25;;;;;;;;;;;;;;;;;;5053766;28;20251;-77
2022/08/13 11:42:51;;;;;;;;;;;;;;;;;;5071254;28;19920;-77
2022/08/13 11:45:16;;;;;;;;;;;;;;;;;;5070902;28;19965;-77
2022/08/13 11:47:42;;;;;;;;;;;;;;;;;;5071468;28;19999;-77
2022/08/13 11:50:07;;;;;;;;;;;;;;;;;;5071731;28;19912;-76
2022/08/13 11:52:32;;;;;;;;;;;;;;;;;;5071222;28;19913;-76
2022/08/13 11:54:58;;;;;;;;;;;;;;;;;;5036929;28;19919;-77
2022/08/13 11:57:23;;;;;;;;;;;;;;;;;;5053772;28;19913;-77
2022/08/13 11:59:48;;;;;;;;;;;;;;;;;;5071865;28;19916;-78
2022/08/13 12:02:14;;;;;;;;;;;;;;;;;;5071572;28;19912;-77
2022/08/13 12:04:39;;;;;;;;;;;;;;;;;;5071387;28;20393;-77
2022/08/13 12:07:05;;;;;;;;;;;;;;;;;;5037135;28;19916;-77
2022/08/13 12:09:30;;;;;;;;;;;;;;;;;;5071689;28;19920;-77
2022/08/13 12:11:56;;;;;;;;;;;;;;;;;;5037543;28;20291;-77
2022/08/13 12:14:21;;;;;;;;;;;;;;;;;;5052581;28;19917;-77
2022/08/13 12:16:46;;;;;;;;;;;;;;;;;;5071471;28;19912;-77
2022/08/13 12:19:12;;;;;;;;;;;;;;;;;;5053834;28;19919;-77
2022/08/13 12:21:37;;;;;;;;;;;;;;;;;;5053564;28;20388;-77
2022/08/13 12:24:02;;;;;;;;;;;;;;;;;;5036794;28;19959;-77
2022/08/13 12:26:28;;;;;;;;;;;;;;;;;;5071309;28;19924;-76
2022/08/13 12:28:53;;;;;;;;;;;;;;;;;;5071320;28;20386;-77
2022/08/13 12:31:20;;;;;;;;;;;;;;;;;;5071277;28;19913;-77
2022/08/13 12:33:46;;;;;;;;;;;;;;;;;;5070973;28;20007;-78
2022/08/13 12:36:11;;;;;;;;;;;;;;;;;;5071296;28;20013;-78
2022/08/13 12:38:37;;;;;;;;;;;;;;;;;;5071429;28;20442;-78
2022/08/13 12:41:02;;;;;;;;;;;;;;;;;;5071071;28;19982;-77
2022/08/13 12:43:27;;;;;;;;;;;;;;;;;;5052904;28;19952;-77
2022/08/13 12:45:53;;;;;;;;;;;;;;;;;;5053085;28;20009;-77
2022/08/13 12:48:18;;;;;;;;;;;;;;;;;;5070836;28;19916;-77
2022/08/13 12:50:43;;;;;;;;;;;;;;;;;;5070905;28;20292;-77
2022/08/13 12:53:09;;;;;;;;;;;;;;;;;;5070728;28;20307;-78
2022/08/13 12:55:34;;;;;;;;;;;;;;;;;;5037329;28;19919;-77
2022/08/13 12:57:59;;;;;;;;;;;;;;;;;;5056996;28;19912;-77
2022/08/13 13:00:26;;;;;;;;;;;;;;;;;;5074600;28;19912;-77
2022/08/13 13:02:52;;;;;;;;;;;;;;;;;;5074220;28;19912;-77
2022/08/13 13:05:17;;;;;;;;;;;;;;;;;;5074532;28;19935;-76
2022/08/13 13:07:43;;;;;;;;;;;;;;;;;;5074595;28;20290;-76
2022/08/13 13:10:09;;;;;;;;;;;;;;;;;;5074452;28;19915;-77
2022/08/13 13:12:34;;;;;;;;;;;;;;;;;;5074050;28;20383;-77
2022/08/13 13:14:59;;;;;;;;;;;;;;;;;;5074284;28;19916;-77
2022/08/13 13:17:25;;;;;;;;;;;;;;;;;;5074283;28;19912;-77
2022/08/13 13:19:53;;;;;;;;;;;;;;;;;;5056540;28;20375;-77
2022/08/13 13:22:19;;;;;;;;;;;;;;;;;;5056205;28;19935;-76
2022/08/13 13:24:44;;;;;;;;;;;;;;;;;;5073865;28;20376;-77
2022/08/13 13:27:09;;;;;;;;;;;;;;;;;;5055912;28;19920;-76
2022/08/13 13:29:36;;;;;;;;;;;;;;;;;;5073710;28;20466;-77
2022/08/13 13:32:02;;;;;;;;;;;;;;;;;;5074101;28;19966;-77
2022/08/13 13:34:28;;;;;;;;;;;;;;;;;;5055831;28;19913;-77
2022/08/13 13:36:53;;;;;;;;;;;;;;;;;;5074054;28;19966;-77
2022/08/13 13:39:18;;;;;;;;;;;;;;;;;;5073821;28;19989;-76
2022/08/13 13:41:44;;;;;;;;;;;;;;;;;;5073773;28;19920;-76
2022/08/13 13:44:09;;;;;;;;;;;;;;;;;;5055801;28;20287;-77
2022/08/13 13:46:35;;;;;;;;;;;;;;;;;;5073792;28;19916;-76
2022/08/13 13:49:00;;;;;;;;;;;;;;;;;;5073564;28;20050;-77
2022/08/13 13:51:26;;;;;;;;;;;;;;;;;;5055739;28;20436;-76
2022/08/13 13:53:51;;;;;;;;;;;;;;;;;;5055358;28;19935;-76
2022/08/13 13:56:20;;;;;;;;;;;;;;;;;;5073591;28;20002;-77
2022/08/13 13:58:45;;;;;;;;;;;;;;;;;;5073520;28;19958;-76
2022/08/13 14:01:10;;;;;;;;;;;;;;;;;;5055653;28;19916;-77
2022/08/13 14:03:36;;;;;;;;;;;;;;;;;;5073057;28;20307;-76
2022/08/13 14:06:01;;;;;;;;;;;;;;;;;;5039154;28;19912;-76
2022/08/13 14:08:28;;;;;;;;;;;;;;;;;;5072568;28;20015;-76
2022/08/13 14:10:53;;;;;;;;;;;;;;;;;;5073390;28;19913;-77
2022/08/13 14:13:19;;;;;;;;;;;;;;;;;;5055040;28;20312;-76
2022/08/13 14:15:45;;;;;;;;;;;;;;;;;;5055216;28;19913;-75
2022/08/13 14:18:10;;;;;;;;;;;;;;;;;;5055177;28;19916;-76
2022/08/13 14:20:36;;;;;;;;;;;;;;;;;;5073314;28;19913;-78
2022/08/13 14:23:01;;;;;;;;;;;;;;;;;;5072818;28;19912;-77
2022/08/13 14:25:30;;;;;;;;;;;;;;;;;;5072953;28;20398;-76
2022/08/13 14:27:55;;;;;;;;;;;;;;;;;;5054847;28;19917;-76
2022/08/13 14:30:20;;;;;;;;;;;;;;;;;;5073115;28;19913;-77
2022/08/13 14:32:46;;;;;;;;;;;;;;;;;;5072516;28;20014;-77
2022/08/13 14:35:12;;;;;;;;;;;;;;;;;;5073017;28;19950;-77
2022/08/13 14:37:37;;;;;;;;;;;;;;;;;;5072776;28;19912;-76
2022/08/13 14:40:03;;;;;;;;;;;;;;;;;;5072745;28;20284;-77
2022/08/13 14:42:28;;;;;;;;;;;;;;;;;;5054367;28;19916;-77
2022/08/13 14:45:39;;;;;;;;;;;;;;;;;;5054749;28;20395;-77
2022/08/13 14:47:39;;;;;;;;;;;;;;;;;;5054770;28;19916;-76
2022/08/13 14:50:04;;;;;;;;;;;;;;;;;;5055052;28;19909;-77
2022/08/13 14:52:32;;;;;;;;;;;;;;;;;;5054557;28;19916;-77
2022/08/13 14:54:57;;;;;;;;;;;;;;;;;;5072691;28;20008;-78
2022/08/13 14:57:23;;;;;;;;;;;;;;;;;;5072432;28;19947;-77
2022/08/13 14:59:48;;;;;;;;;;;;;;;;;;5054665;28;20170;-77
2022/08/13 15:02:14;;;;;;;;;;;;;;;;;;5054479;28;19920;-77
2022/08/13 15:04:39;;;;;;;;;;;;;;;;;;5072216;28;19923;-76
2022/08/13 15:07:06;;;;;;;;;;;;;;;;;;5054336;28;19916;-77
2022/08/13 15:09:33;;;;;;;;;;;;;;;;;;5072166;28;19912;-77
2022/08/13 15:11:58;;;;;;;;;;;;;;;;;;5072106;28;19916;-76
2022/08/13 15:14:23;;;;;;;;;;;;;;;;;;5071955;28;19959;-76
2022/08/13 15:16:49;;;;;;;;;;;;;;;;;;5072336;28;19986;-77
2022/08/13 15:19:14;;;;;;;;;;;;;;;;;;5072017;28;19963;-76
2022/08/13 15:21:40;;;;;;;;;;;;;;;;;;5072182;28;19916;-75
2022/08/13 15:24:05;;;;;;;;;;;;;;;;;;5036933;28;20385;-77
2022/08/13 15:26:30;;;;;;;;;;;;;;;;;;5071755;28;19916;-77
2022/08/13 15:29:03;;;;;;;;;;;;;;;;;;5071850;28;19916;-77
2022/08/13 15:31:29;;;;;;;;;;;;;;;;;;5054250;28;19912;-78
2022/08/13 15:33:54;;;;;;;;;;;;;;;;;;5071809;28;19912;-80
2022/08/13 15:36:20;;;;;;;;;;;;;;;;;;5072087;28;19919;-79
2022/08/13 15:38:46;;;;;;;;;;;;;;;;;;5054596;28;19909;-77
2022/08/13 15:41:11;;;;;;;;;;;;;;;;;;5064083;22;19962;-75
2022/08/13 15:43:37;;;;;;;;;;;;;;;;;;4981207;28;20348;-75
2022/08/13 15:46:02;;;;;;;;;;;;;;;;;;5014132;28;20292;-77
2022/08/13 15:48:27;;;;;;;;;;;;;;;;;;5014374;28;20335;-77
2022/08/13 15:50:56;;;;;;;;;;;;;;;;;;5014176;28;20418;-77
2022/08/13 15:53:21;;;;;;;;;;;;;;;;;;4997427;28;20359;-77
2022/08/13 15:55:46;;;;;;;;;;;;;;;;;;5014166;28;19952;-77
2022/08/13 15:58:12;;;;;;;;;;;;;;;;;;5014159;28;19940;-76
2022/08/13 16:00:40;;;;;;;;;;;;;;;;;;5031739;28;19919;-75
2022/08/13 16:03:06;;;;;;;;;;;;;;;;;;5031479;28;19913;-76
2022/08/13 16:05:31;;;;;;;;;;;;;;;;;;5031698;28;19913;-77
2022/08/13 16:07:56;;;;;;;;;;;;;;;;;;5030340;28;20265;-76
2022/08/13 16:10:22;;;;;;;;;;;;;;;;;;4997773;28;19920;-74
2022/08/13 16:12:47;;;;;;;;;;;;;;;;;;5031219;28;19960;-75
2022/08/13 16:15:13;;;;;;;;;;;;;;;;;;5013932;28;19913;-76
2022/08/13 16:17:38;;;;;;;;;;;;;;;;;;5013846;28;19920;-76
2022/08/13 16:20:03;;;;;;;;;;;;;;;;;;5031655;28;19914;-76
2022/08/13 16:22:29;;;;;;;;;;;;;;;;;;5013770;28;20300;-75
2022/08/13 16:24:54;;;;;;;;;;;;;;;;;;5031216;28;19935;-76
2022/08/13 16:27:20;;;;;;;;;;;;;;;;;;5014204;28;19917;-77
2022/08/13 16:29:45;;;;;;;;;;;;;;;;;;5031641;28;20337;-76
2022/08/13 16:32:11;;;;;;;;;;;;;;;;;;5017042;28;19972;-76
2022/08/13 16:34:39;;;;;;;;;;;;;;;;;;5033699;28;19921;-75
2022/08/13 16:37:05;;;;;;;;;;;;;;;;;;5034007;28;19914;-76
2022/08/13 16:39:30;;;;;;;;;;;;;;;;;;5017360;28;19913;-76
2022/08/13 16:41:55;;;;;;;;;;;;;;;;;;5034944;28;19921;-76
2022/08/13 16:44:21;;;;;;;;;;;;;;;;;;5034704;28;20288;-75
2022/08/13 16:46:46;;;;;;;;;;;;;;;;;;5035220;28;20377;-77
2022/08/13 16:49:11;;;;;;;;;;;;;;;;;;5017282;28;20346;-75
2022/08/13 16:51:37;;;;;;;;;;;;;;;;;;5035104;28;20011;-77
2022/08/13 16:54:02;;;;;;;;;;;;;;;;;;5034586;28;19920;-77
2022/08/13 16:56:28;;;;;;;;;;;;;;;;;;5000931;28;19975;-77
2022/08/13 16:58:54;;;;;;;;;;;;;;;;;;5034773;28;19913;-77
2022/08/13 17:01:19;;;;;;;;;;;;;;;;;;5034799;28;20399;-76